sensor_id;sensor_type;location;lat;lon;timestamp;temperature;humidity
51655;DHT22;37732;53.106;7.030;2024-03-22T00:01:47;9.30;99.90
51655;DHT22;37732;53.106;7.030;2024-03-22T00:04:14;9.30;99.90
51655;DHT22;37732;53.106;7.030;2024-03-22T00:06:41;9.30;99.90
51655;DHT22;37732;53.106;7.030;2024-03-22T00:09:07;9.30;99.90
51655;DHT22;37732;53.106;7.030;2024-03-22T00:11:33;9.30;99.90
51655;DHT22;37732;53.106;7.030;2024-03-22T00:13:59;9.40;99.90
51655;DHT22;37732;53.106;7.030;2024-03-22T00:16:24;9.30;99.90
51655;DHT22;37732;53.106;7.030;2024-03-22T00:18:50;9.30;99.90
51655;DHT22;37732;53.106;7.030;2024-03-22T00:21:16;9.30;99.90
51655;DHT22;37732;53.106;7.030;2024-03-22T00:23:43;9.40;99.90
51655;DHT22;37732;53.106;7.030;2024-03-22T00:26:09;9.30;99.90
51655;DHT22;37732;53.106;7.030;2024-03-22T00:28:34;9.40;99.90
51655;DHT22;37732;53.106;7.030;2024-03-22T00:31:00;9.40;99.90
51655;DHT22;37732;53.106;7.030;2024-03-22T00:33:25;9.40;99.90
51655;DHT22;37732;53.106;7.030;2024-03-22T00:35:51;9.40;99.90
51655;DHT22;37732;53.106;7.030;2024-03-22T00:38:17;9.50;99.90
51655;DHT22;37732;53.106;7.030;2024-03-22T00:40:42;9.50;99.90
51655;DHT22;37732;53.106;7.030;2024-03-22T00:43:09;9.40;99.90
51655;DHT22;37732;53.106;7.030;2024-03-22T00:45:34;9.50;99.90
51655;DHT22;37732;53.106;7.030;2024-03-22T00:48:00;9.40;99.90
51655;DHT22;37732;53.106;7.030;2024-03-22T00:50:25;9.40;99.90
51655;DHT22;37732;53.106;7.030;2024-03-22T00:52:51;9.50;99.90
51655;DHT22;37732;53.106;7.030;2024-03-22T00:55:18;9.40;99.90
51655;DHT22;37732;53.106;7.030;2024-03-22T00:57:44;9.50;99.90
51655;DHT22;37732;53.106;7.030;2024-03-22T01:00:10;9.50;99.90
51655;DHT22;37732;53.106;7.030;2024-03-22T01:02:36;9.50;99.90
51655;DHT22;37732;53.106;7.030;2024-03-22T01:05:01;9.50;99.90
51655;DHT22;37732;53.106;7.030;2024-03-22T01:07:27;9.50;99.90
51655;DHT22;37732;53.106;7.030;2024-03-22T01:09:53;9.50;99.90
51655;DHT22;37732;53.106;7.030;2024-03-22T01:12:18;9.50;99.90
51655;DHT22;37732;53.106;7.030;2024-03-22T01:14:44;9.50;99.90
51655;DHT22;37732;53.106;7.030;2024-03-22T01:17:10;9.50;99.90
51655;DHT22;37732;53.106;7.030;2024-03-22T01:19:35;9.50;99.90
51655;DHT22;37732;53.106;7.030;2024-03-22T01:22:01;9.60;99.90
51655;DHT22;37732;53.106;7.030;2024-03-22T01:24:26;9.50;99.90
51655;DHT22;37732;53.106;7.030;2024-03-22T01:26:52;9.50;99.90
51655;DHT22;37732;53.106;7.030;2024-03-22T01:29:18;9.60;99.90
51655;DHT22;37732;53.106;7.030;2024-03-22T01:31:44;9.60;99.90
51655;DHT22;37732;53.106;7.030;2024-03-22T01:34:09;9.60;99.90
51655;DHT22;37732;53.106;7.030;2024-03-22T01:36:35;9.60;99.90
51655;DHT22;37732;53.106;7.030;2024-03-22T01:39:01;9.60;99.90
51655;DHT22;37732;53.106;7.030;2024-03-22T01:41:26;9.60;99.90
51655;DHT22;37732;53.106;7.030;2024-03-22T01:43:52;9.70;99.90
51655;DHT22;37732;53.106;7.030;2024-03-22T01:46:18;9.70;99.90
51655;DHT22;37732;53.106;7.030;2024-03-22T01:48:43;9.70;99.90
51655;DHT22;37732;53.106;7.030;2024-03-22T01:51:09;9.70;99.90
51655;DHT22;37732;53.106;7.030;2024-03-22T01:53:37;9.80;99.90
51655;DHT22;37732;53.106;7.030;2024-03-22T01:56:03;9.70;99.90
51655;DHT22;37732;53.106;7.030;2024-03-22T01:58:29;9.70;99.90
51655;DHT22;37732;53.106;7.030;2024-03-22T02:03:30;9.70;99.90
51655;DHT22;37732;53.106;7.030;2024-03-22T02:05:56;9.80;99.90
51655;DHT22;37732;53.106;7.030;2024-03-22T02:08:21;9.70;99.90
51655;DHT22;37732;53.106;7.030;2024-03-22T02:10:47;9.80;99.90
51655;DHT22;37732;53.106;7.030;2024-03-22T02:13:13;9.80;99.90
51655;DHT22;37732;53.106;7.030;2024-03-22T02:15:38;9.80;99.90
51655;DHT22;37732;53.106;7.030;2024-03-22T02:18:04;9.80;99.90
51655;DHT22;37732;53.106;7.030;2024-03-22T02:20:30;9.80;99.90
51655;DHT22;37732;53.106;7.030;2024-03-22T02:22:56;9.80;99.90
51655;DHT22;37732;53.106;7.030;2024-03-22T02:25:21;9.80;99.90
51655;DHT22;37732;53.106;7.030;2024-03-22T02:27:47;9.90;99.90
51655;DHT22;37732;53.106;7.030;2024-03-22T02:30:16;9.90;99.90
51655;DHT22;37732;53.106;7.030;2024-03-22T02:32:42;9.90;99.90
51655;DHT22;37732;53.106;7.030;2024-03-22T02:35:08;9.90;99.90
51655;DHT22;37732;53.106;7.030;2024-03-22T02:37:34;9.90;99.90
51655;DHT22;37732;53.106;7.030;2024-03-22T02:39:59;9.90;99.90
51655;DHT22;37732;53.106;7.030;2024-03-22T02:42:25;9.90;99.90
51655;DHT22;37732;53.106;7.030;2024-03-22T02:44:51;9.90;99.90
51655;DHT22;37732;53.106;7.030;2024-03-22T02:47:17;10.00;99.90
51655;DHT22;37732;53.106;7.030;2024-03-22T02:49:43;10.00;99.90
51655;DHT22;37732;53.106;7.030;2024-03-22T02:52:08;10.00;99.90
51655;DHT22;37732;53.106;7.030;2024-03-22T02:54:34;10.00;99.90
51655;DHT22;37732;53.106;7.030;2024-03-22T02:57:00;10.00;99.90
51655;DHT22;37732;53.106;7.030;2024-03-22T02:59:27;10.00;99.90
51655;DHT22;37732;53.106;7.030;2024-03-22T03:01:53;10.00;99.90
51655;DHT22;37732;53.106;7.030;2024-03-22T03:04:19;10.00;99.90
51655;DHT22;37732;53.106;7.030;2024-03-22T03:06:44;10.00;99.90
51655;DHT22;37732;53.106;7.030;2024-03-22T03:09:13;10.00;99.90
51655;DHT22;37732;53.106;7.030;2024-03-22T03:11:41;10.10;99.90
51655;DHT22;37732;53.106;7.030;2024-03-22T03:14:07;10.10;99.90
51655;DHT22;37732;53.106;7.030;2024-03-22T03:16:33;10.10;99.90
51655;DHT22;37732;53.106;7.030;2024-03-22T03:18:59;10.00;99.90
51655;DHT22;37732;53.106;7.030;2024-03-22T03:21:24;10.10;99.90
51655;DHT22;37732;53.106;7.030;2024-03-22T03:23:50;10.10;99.90
51655;DHT22;37732;53.106;7.030;2024-03-22T03:26:16;10.10;99.90
51655;DHT22;37732;53.106;7.030;2024-03-22T03:28:42;10.10;99.90
51655;DHT22;37732;53.106;7.030;2024-03-22T03:31:07;10.10;99.90
51655;DHT22;37732;53.106;7.030;2024-03-22T03:33:33;10.10;99.90
51655;DHT22;37732;53.106;7.030;2024-03-22T03:35:59;10.10;99.90
51655;DHT22;37732;53.106;7.030;2024-03-22T03:38:24;10.10;99.90
51655;DHT22;37732;53.106;7.030;2024-03-22T03:40:50;10.10;99.90
51655;DHT22;37732;53.106;7.030;2024-03-22T03:43:16;10.10;99.90
51655;DHT22;37732;53.106;7.030;2024-03-22T03:45:41;10.10;99.90
51655;DHT22;37732;53.106;7.030;2024-03-22T03:48:07;10.00;99.90
51655;DHT22;37732;53.106;7.030;2024-03-22T03:50:33;10.00;99.90
51655;DHT22;37732;53.106;7.030;2024-03-22T03:52:58;10.10;99.90
51655;DHT22;37732;53.106;7.030;2024-03-22T03:55:24;10.00;99.90
51655;DHT22;37732;53.106;7.030;2024-03-22T03:57:50;10.00;99.90
51655;DHT22;37732;53.106;7.030;2024-03-22T04:00:17;10.00;99.90
51655;DHT22;37732;53.106;7.030;2024-03-22T04:02:43;10.00;99.90
51655;DHT22;37732;53.106;7.030;2024-03-22T04:05:08;10.00;99.90
51655;DHT22;37732;53.106;7.030;2024-03-22T04:07:34;10.00;99.90
51655;DHT22;37732;53.106;7.030;2024-03-22T04:09:59;10.10;99.90
51655;DHT22;37732;53.106;7.030;2024-03-22T04:12:28;10.10;99.90
51655;DHT22;37732;53.106;7.030;2024-03-22T04:14:54;10.10;99.90
51655;DHT22;37732;53.106;7.030;2024-03-22T04:17:20;10.10;99.90
51655;DHT22;37732;53.106;7.030;2024-03-22T04:19:46;10.10;99.90
51655;DHT22;37732;53.106;7.030;2024-03-22T04:22:11;10.20;99.90
51655;DHT22;37732;53.106;7.030;2024-03-22T04:24:37;10.20;99.90
51655;DHT22;37732;53.106;7.030;2024-03-22T04:27:03;10.20;99.90
51655;DHT22;37732;53.106;7.030;2024-03-22T04:29:28;10.30;99.90
51655;DHT22;37732;53.106;7.030;2024-03-22T04:31:54;10.30;99.90
51655;DHT22;37732;53.106;7.030;2024-03-22T04:34:20;10.30;99.90
51655;DHT22;37732;53.106;7.030;2024-03-22T04:36:45;10.30;99.90
51655;DHT22;37732;53.106;7.030;2024-03-22T04:39:11;10.30;99.90
51655;DHT22;37732;53.106;7.030;2024-03-22T04:41:38;11.10;99.90
51655;DHT22;37732;53.106;7.030;2024-03-22T04:44:03;10.40;99.90
51655;DHT22;37732;53.106;7.030;2024-03-22T04:46:29;10.40;99.90
51655;DHT22;37732;53.106;7.030;2024-03-22T04:48:55;10.40;99.90
51655;DHT22;37732;53.106;7.030;2024-03-22T04:51:21;10.40;99.90
51655;DHT22;37732;53.106;7.030;2024-03-22T04:53:46;10.40;99.90
51655;DHT22;37732;53.106;7.030;2024-03-22T04:56:12;10.40;99.90
51655;DHT22;37732;53.106;7.030;2024-03-22T04:58:37;10.40;99.90
51655;DHT22;37732;53.106;7.030;2024-03-22T05:01:03;10.40;99.90
51655;DHT22;37732;53.106;7.030;2024-03-22T05:03:29;10.40;99.90
51655;DHT22;37732;53.106;7.030;2024-03-22T05:05:55;10.50;99.90
51655;DHT22;37732;53.106;7.030;2024-03-22T05:08:21;10.50;99.90
51655;DHT22;37732;53.106;7.030;2024-03-22T05:10:47;10.50;99.90
51655;DHT22;37732;53.106;7.030;2024-03-22T05:13:13;10.40;99.90
51655;DHT22;37732;53.106;7.030;2024-03-22T05:15:38;10.50;99.90
51655;DHT22;37732;53.106;7.030;2024-03-22T05:18:04;10.50;99.90
51655;DHT22;37732;53.106;7.030;2024-03-22T05:20:30;10.50;99.90
51655;DHT22;37732;53.106;7.030;2024-03-22T05:22:55;10.50;99.90
51655;DHT22;37732;53.106;7.030;2024-03-22T05:25:21;10.50;99.90
51655;DHT22;37732;53.106;7.030;2024-03-22T05:27:47;10.40;99.90
51655;DHT22;37732;53.106;7.030;2024-03-22T05:30:13;10.50;99.90
51655;DHT22;37732;53.106;7.030;2024-03-22T05:32:42;10.50;99.90
51655;DHT22;37732;53.106;7.030;2024-03-22T05:35:08;10.50;99.90
51655;DHT22;37732;53.106;7.030;2024-03-22T05:37:34;10.50;99.90
51655;DHT22;37732;53.106;7.030;2024-03-22T05:40:01;10.50;99.90
51655;DHT22;37732;53.106;7.030;2024-03-22T05:42:27;10.50;99.90
51655;DHT22;37732;53.106;7.030;2024-03-22T05:44:54;10.50;99.90
51655;DHT22;37732;53.106;7.030;2024-03-22T05:47:20;10.50;99.90
51655;DHT22;37732;53.106;7.030;2024-03-22T05:49:46;10.50;99.90
51655;DHT22;37732;53.106;7.030;2024-03-22T05:52:12;10.50;99.90
51655;DHT22;37732;53.106;7.030;2024-03-22T05:54:38;10.50;99.90
51655;DHT22;37732;53.106;7.030;2024-03-22T05:57:04;10.50;99.90
51655;DHT22;37732;53.106;7.030;2024-03-22T05:59:31;10.50;99.90
51655;DHT22;37732;53.106;7.030;2024-03-22T06:01:56;10.50;99.90
51655;DHT22;37732;53.106;7.030;2024-03-22T06:04:22;10.50;99.90
51655;DHT22;37732;53.106;7.030;2024-03-22T06:06:49;10.40;99.90
51655;DHT22;37732;53.106;7.030;2024-03-22T06:09:15;10.40;99.90
51655;DHT22;37732;53.106;7.030;2024-03-22T06:11:50;10.40;99.90
51655;DHT22;37732;53.106;7.030;2024-03-22T06:14:15;10.40;99.90
51655;DHT22;37732;53.106;7.030;2024-03-22T06:16:41;10.40;99.90
51655;DHT22;37732;53.106;7.030;2024-03-22T06:19:07;10.30;99.90
51655;DHT22;37732;53.106;7.030;2024-03-22T06:21:32;10.30;99.90
51655;DHT22;37732;53.106;7.030;2024-03-22T06:23:58;10.30;99.90
51655;DHT22;37732;53.106;7.030;2024-03-22T06:26:24;10.30;99.90
51655;DHT22;37732;53.106;7.030;2024-03-22T06:28:49;10.30;99.90
51655;DHT22;37732;53.106;7.030;2024-03-22T06:31:15;10.30;99.90
51655;DHT22;37732;53.106;7.030;2024-03-22T06:33:41;10.20;99.90
51655;DHT22;37732;53.106;7.030;2024-03-22T06:36:07;10.30;99.90
51655;DHT22;37732;53.106;7.030;2024-03-22T06:38:33;10.30;99.90
51655;DHT22;37732;53.106;7.030;2024-03-22T06:40:58;10.20;99.90
51655;DHT22;37732;53.106;7.030;2024-03-22T06:43:24;10.20;99.90
51655;DHT22;37732;53.106;7.030;2024-03-22T06:45:51;10.20;99.90
51655;DHT22;37732;53.106;7.030;2024-03-22T06:48:16;10.20;99.90
51655;DHT22;37732;53.106;7.030;2024-03-22T06:50:42;10.20;99.90
51655;DHT22;37732;53.106;7.030;2024-03-22T06:53:08;10.20;99.90
51655;DHT22;37732;53.106;7.030;2024-03-22T06:55:36;10.20;99.90
51655;DHT22;37732;53.106;7.030;2024-03-22T06:58:01;10.20;99.90
51655;DHT22;37732;53.106;7.030;2024-03-22T07:00:27;10.20;99.90
51655;DHT22;37732;53.106;7.030;2024-03-22T07:02:53;10.20;99.90
51655;DHT22;37732;53.106;7.030;2024-03-22T07:05:21;10.20;99.90
51655;DHT22;37732;53.106;7.030;2024-03-22T07:07:47;10.20;99.90
51655;DHT22;37732;53.106;7.030;2024-03-22T07:10:13;10.20;99.90
51655;DHT22;37732;53.106;7.030;2024-03-22T07:12:38;10.20;99.90
51655;DHT22;37732;53.106;7.030;2024-03-22T07:15:05;10.20;99.90
51655;DHT22;37732;53.106;7.030;2024-03-22T07:17:31;10.20;99.90
51655;DHT22;37732;53.106;7.030;2024-03-22T07:19:57;10.20;99.90
51655;DHT22;37732;53.106;7.030;2024-03-22T07:22:22;10.10;99.90
51655;DHT22;37732;53.106;7.030;2024-03-22T07:24:48;10.20;99.90
51655;DHT22;37732;53.106;7.030;2024-03-22T07:27:14;10.30;99.90
51655;DHT22;37732;53.106;7.030;2024-03-22T07:29:46;10.20;99.90
51655;DHT22;37732;53.106;7.030;2024-03-22T07:32:12;10.20;99.90
51655;DHT22;37732;53.106;7.030;2024-03-22T07:34:37;10.20;99.90
51655;DHT22;37732;53.106;7.030;2024-03-22T07:37:03;10.30;99.90
51655;DHT22;37732;53.106;7.030;2024-03-22T07:39:29;10.30;99.90
51655;DHT22;37732;53.106;7.030;2024-03-22T07:41:55;10.20;99.90
51655;DHT22;37732;53.106;7.030;2024-03-22T07:44:21;10.30;99.90
51655;DHT22;37732;53.106;7.030;2024-03-22T07:46:49;10.60;99.90
51655;DHT22;37732;53.106;7.030;2024-03-22T07:49:15;10.30;99.90
51655;DHT22;37732;53.106;7.030;2024-03-22T07:51:41;10.30;99.90
51655;DHT22;37732;53.106;7.030;2024-03-22T07:54:06;10.30;99.90
51655;DHT22;37732;53.106;7.030;2024-03-22T07:56:32;10.30;99.90
51655;DHT22;37732;53.106;7.030;2024-03-22T07:58:58;10.30;99.90
51655;DHT22;37732;53.106;7.030;2024-03-22T08:01:24;10.30;99.90
51655;DHT22;37732;53.106;7.030;2024-03-22T08:03:51;10.30;99.90
51655;DHT22;37732;53.106;7.030;2024-03-22T08:06:16;10.30;99.90
51655;DHT22;37732;53.106;7.030;2024-03-22T08:08:42;10.30;99.90
51655;DHT22;37732;53.106;7.030;2024-03-22T08:11:08;10.30;99.90
51655;DHT22;37732;53.106;7.030;2024-03-22T08:13:34;10.30;99.90
51655;DHT22;37732;53.106;7.030;2024-03-22T08:16:00;10.30;99.90
51655;DHT22;37732;53.106;7.030;2024-03-22T08:18:26;10.30;99.90
51655;DHT22;37732;53.106;7.030;2024-03-22T08:20:51;10.30;99.90
51655;DHT22;37732;53.106;7.030;2024-03-22T08:23:17;10.30;99.90
51655;DHT22;37732;53.106;7.030;2024-03-22T08:25:46;10.20;99.90
51655;DHT22;37732;53.106;7.030;2024-03-22T08:28:11;10.10;99.90
51655;DHT22;37732;53.106;7.030;2024-03-22T08:30:39;10.20;99.90
51655;DHT22;37732;53.106;7.030;2024-03-22T08:33:05;10.20;99.90
51655;DHT22;37732;53.106;7.030;2024-03-22T08:35:30;10.10;99.90
51655;DHT22;37732;53.106;7.030;2024-03-22T08:37:56;10.20;99.90
51655;DHT22;37732;53.106;7.030;2024-03-22T08:40:22;10.10;99.90
51655;DHT22;37732;53.106;7.030;2024-03-22T08:42:48;10.00;99.90
51655;DHT22;37732;53.106;7.030;2024-03-22T08:45:14;10.10;99.90
51655;DHT22;37732;53.106;7.030;2024-03-22T08:47:42;10.10;99.90
51655;DHT22;37732;53.106;7.030;2024-03-22T08:50:08;10.10;99.90
51655;DHT22;37732;53.106;7.030;2024-03-22T08:52:34;10.10;99.90
51655;DHT22;37732;53.106;7.030;2024-03-22T08:55:01;10.10;99.90
51655;DHT22;37732;53.106;7.030;2024-03-22T08:57:27;10.20;99.90
51655;DHT22;37732;53.106;7.030;2024-03-22T08:59:52;10.20;99.90
51655;DHT22;37732;53.106;7.030;2024-03-22T09:02:18;10.20;99.90
51655;DHT22;37732;53.106;7.030;2024-03-22T09:04:43;10.20;99.90
51655;DHT22;37732;53.106;7.030;2024-03-22T09:07:09;10.20;99.90
51655;DHT22;37732;53.106;7.030;2024-03-22T09:09:35;10.20;99.90
51655;DHT22;37732;53.106;7.030;2024-03-22T09:12:00;10.20;99.90
51655;DHT22;37732;53.106;7.030;2024-03-22T09:14:26;10.20;99.90
51655;DHT22;37732;53.106;7.030;2024-03-22T09:16:52;10.20;99.90
51655;DHT22;37732;53.106;7.030;2024-03-22T09:19:18;10.20;99.90
51655;DHT22;37732;53.106;7.030;2024-03-22T09:21:43;10.30;99.90
51655;DHT22;37732;53.106;7.030;2024-03-22T09:24:09;10.30;99.90
51655;DHT22;37732;53.106;7.030;2024-03-22T09:26:35;10.30;99.90
51655;DHT22;37732;53.106;7.030;2024-03-22T09:29:01;10.30;99.90
51655;DHT22;37732;53.106;7.030;2024-03-22T09:31:26;10.30;99.90
51655;DHT22;37732;53.106;7.030;2024-03-22T09:33:52;10.30;99.90
51655;DHT22;37732;53.106;7.030;2024-03-22T09:36:18;10.30;99.90
51655;DHT22;37732;53.106;7.030;2024-03-22T09:38:44;10.30;99.90
51655;DHT22;37732;53.106;7.030;2024-03-22T09:41:09;10.40;99.90
51655;DHT22;37732;53.106;7.030;2024-03-22T09:43:36;10.40;99.90
51655;DHT22;37732;53.106;7.030;2024-03-22T09:46:05;10.30;99.90
51655;DHT22;37732;53.106;7.030;2024-03-22T09:48:31;10.30;99.90
51655;DHT22;37732;53.106;7.030;2024-03-22T09:50:58;10.40;99.90
51655;DHT22;37732;53.106;7.030;2024-03-22T09:53:25;10.30;99.90
51655;DHT22;37732;53.106;7.030;2024-03-22T09:55:52;10.30;99.90
51655;DHT22;37732;53.106;7.030;2024-03-22T09:58:23;10.40;99.90
51655;DHT22;37732;53.106;7.030;2024-03-22T10:00:49;10.40;99.90
51655;DHT22;37732;53.106;7.030;2024-03-22T10:03:14;10.40;99.90
51655;DHT22;37732;53.106;7.030;2024-03-22T10:05:41;10.40;99.90
51655;DHT22;37732;53.106;7.030;2024-03-22T10:08:07;10.40;99.90
51655;DHT22;37732;53.106;7.030;2024-03-22T10:10:33;10.40;99.90
51655;DHT22;37732;53.106;7.030;2024-03-22T10:13:03;10.40;99.90
51655;DHT22;37732;53.106;7.030;2024-03-22T10:15:30;10.40;99.90
51655;DHT22;37732;53.106;7.030;2024-03-22T10:17:57;10.40;99.90
51655;DHT22;37732;53.106;7.030;2024-03-22T10:20:24;10.40;99.90
51655;DHT22;37732;53.106;7.030;2024-03-22T10:22:56;10.40;99.90
51655;DHT22;37732;53.106;7.030;2024-03-22T10:25:23;10.40;99.90
51655;DHT22;37732;53.106;7.030;2024-03-22T10:27:48;10.40;99.90
51655;DHT22;37732;53.106;7.030;2024-03-22T10:30:16;10.40;99.90
51655;DHT22;37732;53.106;7.030;2024-03-22T10:32:43;10.40;99.90
51655;DHT22;37732;53.106;7.030;2024-03-22T10:35:13;10.40;99.90
51655;DHT22;37732;53.106;7.030;2024-03-22T10:37:39;10.50;99.90
51655;DHT22;37732;53.106;7.030;2024-03-22T10:40:05;10.40;99.90
51655;DHT22;37732;53.106;7.030;2024-03-22T10:42:39;10.50;99.90
51655;DHT22;37732;53.106;7.030;2024-03-22T10:45:07;10.50;99.90
51655;DHT22;37732;53.106;7.030;2024-03-22T10:47:34;10.50;99.90
51655;DHT22;37732;53.106;7.030;2024-03-22T10:50:20;10.50;99.90
51655;DHT22;37732;53.106;7.030;2024-03-22T10:52:50;10.40;99.90
51655;DHT22;37732;53.106;7.030;2024-03-22T10:55:24;10.50;99.90
51655;DHT22;37732;53.106;7.030;2024-03-22T10:57:55;10.50;99.90
51655;DHT22;37732;53.106;7.030;2024-03-22T11:00:34;10.50;99.90
51655;DHT22;37732;53.106;7.030;2024-03-22T11:03:04;10.60;99.90
51655;DHT22;37732;53.106;7.030;2024-03-22T11:05:30;10.60;99.90
51655;DHT22;37732;53.106;7.030;2024-03-22T11:07:59;10.60;99.90
51655;DHT22;37732;53.106;7.030;2024-03-22T11:10:33;10.60;99.90
51655;DHT22;37732;53.106;7.030;2024-03-22T11:13:07;10.60;99.90
51655;DHT22;37732;53.106;7.030;2024-03-22T11:15:33;10.70;99.90
51655;DHT22;37732;53.106;7.030;2024-03-22T11:17:59;10.70;99.90
51655;DHT22;37732;53.106;7.030;2024-03-22T11:20:25;10.70;99.90
51655;DHT22;37732;53.106;7.030;2024-03-22T11:22:52;10.70;99.90
51655;DHT22;37732;53.106;7.030;2024-03-22T11:25:18;10.70;99.90
51655;DHT22;37732;53.106;7.030;2024-03-22T11:27:45;10.70;99.90
51655;DHT22;37732;53.106;7.030;2024-03-22T11:30:11;10.70;99.90
51655;DHT22;37732;53.106;7.030;2024-03-22T11:32:37;10.70;99.90
51655;DHT22;37732;53.106;7.030;2024-03-22T11:35:11;10.70;99.90
51655;DHT22;37732;53.106;7.030;2024-03-22T11:37:42;10.70;99.90
51655;DHT22;37732;53.106;7.030;2024-03-22T11:40:11;10.70;99.90
51655;DHT22;37732;53.106;7.030;2024-03-22T11:42:52;10.70;99.90
51655;DHT22;37732;53.106;7.030;2024-03-22T11:45:19;10.70;99.90
51655;DHT22;37732;53.106;7.030;2024-03-22T11:47:46;10.70;99.90
51655;DHT22;37732;53.106;7.030;2024-03-22T11:50:13;10.70;99.90
51655;DHT22;37732;53.106;7.030;2024-03-22T11:52:43;10.70;99.90
51655;DHT22;37732;53.106;7.030;2024-03-22T11:55:14;10.70;99.90
51655;DHT22;37732;53.106;7.030;2024-03-22T11:57:40;10.70;99.90
51655;DHT22;37732;53.106;7.030;2024-03-22T12:00:06;10.70;99.90
51655;DHT22;37732;53.106;7.030;2024-03-22T12:02:37;10.70;99.90
51655;DHT22;37732;53.106;7.030;2024-03-22T12:05:04;10.70;99.90
51655;DHT22;37732;53.106;7.030;2024-03-22T12:07:30;10.80;99.90
51655;DHT22;37732;53.106;7.030;2024-03-22T12:09:56;10.80;99.90
51655;DHT22;37732;53.106;7.030;2024-03-22T12:12:22;10.80;99.90
51655;DHT22;37732;53.106;7.030;2024-03-22T12:14:48;10.80;99.90
51655;DHT22;37732;53.106;7.030;2024-03-22T12:17:16;10.80;99.90
51655;DHT22;37732;53.106;7.030;2024-03-22T12:19:43;10.80;99.90
51655;DHT22;37732;53.106;7.030;2024-03-22T12:22:08;10.70;99.90
51655;DHT22;37732;53.106;7.030;2024-03-22T12:24:34;10.70;99.90
51655;DHT22;37732;53.106;7.030;2024-03-22T12:27:00;10.70;99.90
51655;DHT22;37732;53.106;7.030;2024-03-22T12:29:26;10.70;99.90
51655;DHT22;37732;53.106;7.030;2024-03-22T12:31:51;10.70;99.90
51655;DHT22;37732;53.106;7.030;2024-03-22T12:34:17;10.70;99.90
51655;DHT22;37732;53.106;7.030;2024-03-22T12:36:43;10.60;99.90
51655;DHT22;37732;53.106;7.030;2024-03-22T12:39:09;10.60;99.90
51655;DHT22;37732;53.106;7.030;2024-03-22T12:41:35;10.60;99.90
51655;DHT22;37732;53.106;7.030;2024-03-22T12:44:01;10.60;99.90
51655;DHT22;37732;53.106;7.030;2024-03-22T12:46:27;10.60;99.90
51655;DHT22;37732;53.106;7.030;2024-03-22T12:48:53;10.60;99.90
51655;DHT22;37732;53.106;7.030;2024-03-22T12:51:19;10.50;99.90
51655;DHT22;37732;53.106;7.030;2024-03-22T12:53:45;10.60;99.90
51655;DHT22;37732;53.106;7.030;2024-03-22T12:56:11;10.50;99.90
51655;DHT22;37732;53.106;7.030;2024-03-22T12:58:37;10.50;99.90
51655;DHT22;37732;53.106;7.030;2024-03-22T13:01:05;10.50;99.90
51655;DHT22;37732;53.106;7.030;2024-03-22T13:03:32;10.40;99.90
51655;DHT22;37732;53.106;7.030;2024-03-22T13:05:58;10.40;99.90
51655;DHT22;37732;53.106;7.030;2024-03-22T13:08:24;10.30;99.90
51655;DHT22;37732;53.106;7.030;2024-03-22T13:10:49;10.30;99.90
51655;DHT22;37732;53.106;7.030;2024-03-22T13:13:15;10.40;99.90
51655;DHT22;37732;53.106;7.030;2024-03-22T13:15:44;10.40;99.90
51655;DHT22;37732;53.106;7.030;2024-03-22T13:18:12;10.40;99.90
51655;DHT22;37732;53.106;7.030;2024-03-22T13:20:38;10.40;99.90
51655;DHT22;37732;53.106;7.030;2024-03-22T13:23:04;10.50;99.90
51655;DHT22;37732;53.106;7.030;2024-03-22T13:25:30;10.50;99.90
51655;DHT22;37732;53.106;7.030;2024-03-22T13:27:56;10.50;99.90
51655;DHT22;37732;53.106;7.030;2024-03-22T13:30:22;10.50;99.90
51655;DHT22;37732;53.106;7.030;2024-03-22T13:32:48;10.60;99.90
51655;DHT22;37732;53.106;7.030;2024-03-22T13:35:13;10.50;99.90
51655;DHT22;37732;53.106;7.030;2024-03-22T13:37:40;10.50;99.90
51655;DHT22;37732;53.106;7.030;2024-03-22T13:40:07;10.50;99.90
51655;DHT22;37732;53.106;7.030;2024-03-22T13:42:33;10.60;99.90
51655;DHT22;37732;53.106;7.030;2024-03-22T13:44:58;10.60;99.90
51655;DHT22;37732;53.106;7.030;2024-03-22T13:47:25;10.60;99.90
51655;DHT22;37732;53.106;7.030;2024-03-22T13:49:52;10.60;99.90
51655;DHT22;37732;53.106;7.030;2024-03-22T13:52:18;10.60;99.90
51655;DHT22;37732;53.106;7.030;2024-03-22T13:54:43;10.60;99.90
51655;DHT22;37732;53.106;7.030;2024-03-22T13:57:09;10.60;99.90
51655;DHT22;37732;53.106;7.030;2024-03-22T13:59:35;10.60;99.90
51655;DHT22;37732;53.106;7.030;2024-03-22T14:02:01;10.50;99.90
51655;DHT22;37732;53.106;7.030;2024-03-22T14:04:27;10.50;99.90
51655;DHT22;37732;53.106;7.030;2024-03-22T14:06:54;10.50;99.90
51655;DHT22;37732;53.106;7.030;2024-03-22T14:09:20;10.40;99.90
51655;DHT22;37732;53.106;7.030;2024-03-22T14:11:45;10.50;99.90
51655;DHT22;37732;53.106;7.030;2024-03-22T14:14:14;10.40;99.90
51655;DHT22;37732;53.106;7.030;2024-03-22T14:16:41;10.40;99.90
51655;DHT22;37732;53.106;7.030;2024-03-22T14:19:10;10.40;99.90
51655;DHT22;37732;53.106;7.030;2024-03-22T14:21:36;10.40;99.90
51655;DHT22;37732;53.106;7.030;2024-03-22T14:24:04;10.30;99.90
51655;DHT22;37732;53.106;7.030;2024-03-22T14:26:30;10.40;99.90
51655;DHT22;37732;53.106;7.030;2024-03-22T14:28:55;10.40;99.90
51655;DHT22;37732;53.106;7.030;2024-03-22T14:31:21;10.30;99.90
51655;DHT22;37732;53.106;7.030;2024-03-22T14:33:47;10.30;99.90
51655;DHT22;37732;53.106;7.030;2024-03-22T14:36:13;10.30;99.90
51655;DHT22;37732;53.106;7.030;2024-03-22T14:38:39;10.30;99.90
51655;DHT22;37732;53.106;7.030;2024-03-22T14:41:05;10.20;99.90
51655;DHT22;37732;53.106;7.030;2024-03-22T14:43:31;10.20;99.90
51655;DHT22;37732;53.106;7.030;2024-03-22T14:46:00;10.10;99.90
51655;DHT22;37732;53.106;7.030;2024-03-22T14:48:26;10.10;99.90
51655;DHT22;37732;53.106;7.030;2024-03-22T14:50:51;10.10;99.90
51655;DHT22;37732;53.106;7.030;2024-03-22T14:53:19;10.10;99.90
51655;DHT22;37732;53.106;7.030;2024-03-22T14:56:12;10.00;99.90
51655;DHT22;37732;53.106;7.030;2024-03-22T14:58:38;10.10;99.90
51655;DHT22;37732;53.106;7.030;2024-03-22T15:01:05;10.10;99.90
51655;DHT22;37732;53.106;7.030;2024-03-22T15:03:31;10.10;99.90
51655;DHT22;37732;53.106;7.030;2024-03-22T15:05:58;10.10;99.90
51655;DHT22;37732;53.106;7.030;2024-03-22T15:08:25;10.10;99.90
51655;DHT22;37732;53.106;7.030;2024-03-22T15:10:52;10.00;99.90
51655;DHT22;37732;53.106;7.030;2024-03-22T15:13:18;10.00;99.90
51655;DHT22;37732;53.106;7.030;2024-03-22T15:15:57;9.90;99.90
51655;DHT22;37732;53.106;7.030;2024-03-22T15:18:23;10.00;99.90
51655;DHT22;37732;53.106;7.030;2024-03-22T15:20:49;9.90;99.90
51655;DHT22;37732;53.106;7.030;2024-03-22T15:23:17;9.90;99.90
51655;DHT22;37732;53.106;7.030;2024-03-22T15:25:43;9.90;99.90
51655;DHT22;37732;53.106;7.030;2024-03-22T15:28:12;10.00;99.90
51655;DHT22;37732;53.106;7.030;2024-03-22T15:30:39;9.90;99.90
51655;DHT22;37732;53.106;7.030;2024-03-22T15:33:05;9.90;99.90